createdAt,value
2018-05-10T00:01:30.369Z,3.65
2018-05-10T00:03:59.656Z,3.92
2018-05-10T00:06:28.164Z,3.37
2018-05-10T00:08:59.285Z,3.55
2018-05-10T00:11:27.762Z,5.23
2018-05-10T00:13:56.267Z,5.12
2018-05-10T00:16:24.741Z,4.80
2018-05-10T00:18:53.231Z,5.35
2018-05-10T00:21:21.731Z,4.60
2018-05-10T00:23:50.986Z,4.60
2018-05-10T00:26:19.488Z,4.75
2018-05-10T00:28:47.972Z,4.80
2018-05-10T00:31:16.428Z,4.60
2018-05-10T00:33:44.929Z,5.30
2018-05-10T00:36:13.395Z,4.72
2018-05-10T00:38:41.875Z,4.10
2018-05-10T00:41:10.374Z,3.87
2018-05-10T00:43:38.898Z,3.30
2018-05-10T00:46:07.361Z,3.67
2018-05-10T00:48:35.858Z,3.30
2018-05-10T00:51:04.339Z,3.20
2018-05-10T00:53:32.838Z,3.25
2018-05-10T00:56:01.298Z,3.22
2018-05-10T00:58:29.822Z,3.20
2018-05-10T01:00:58.299Z,2.90
2018-05-10T01:03:26.801Z,2.92
2018-05-10T01:05:56.076Z,2.85
2018-05-10T01:08:24.568Z,2.70
2018-05-10T01:10:53.052Z,2.30
2018-05-10T01:13:21.521Z,2.40
2018-05-10T01:15:50.008Z,2.85
2018-05-10T01:18:18.484Z,2.42
2018-05-10T01:20:46.970Z,2.80
2018-05-10T01:23:15.439Z,2.57
2018-05-10T01:25:43.950Z,2.50
2018-05-10T01:28:12.409Z,2.40
2018-05-10T01:30:40.902Z,2.80
2018-05-10T01:33:09.417Z,2.33
2018-05-10T01:35:55.768Z,2.78
2018-05-10T01:38:24.230Z,3.03
2018-05-10T01:40:53.504Z,2.75
2018-05-10T01:43:21.974Z,2.67
2018-05-10T01:45:50.505Z,2.85
2018-05-10T01:48:19.760Z,2.95
2018-05-10T01:50:48.250Z,3.00
2018-05-10T01:53:16.729Z,2.92
2018-05-10T01:55:45.208Z,3.10
2018-05-10T01:58:13.683Z,3.35
2018-05-10T02:00:42.220Z,2.90
2018-05-10T02:03:10.668Z,2.50
2018-05-10T02:05:39.186Z,2.70
2018-05-10T02:08:07.713Z,2.47
2018-05-10T02:10:36.321Z,2.50
2018-05-10T02:13:04.819Z,2.63
2018-05-10T02:15:33.304Z,2.30
2018-05-10T02:18:01.763Z,2.60
2018-05-10T02:20:30.268Z,2.78
2018-05-10T02:22:58.760Z,2.60
2018-05-10T02:25:27.259Z,2.85
2018-05-10T02:27:55.709Z,3.12
2018-05-10T02:30:24.196Z,3.03
2018-05-10T02:32:52.664Z,2.70
2018-05-10T02:35:21.193Z,2.83
2018-05-10T02:37:49.679Z,2.83
2018-05-10T02:40:18.174Z,2.70
2018-05-10T02:42:46.651Z,2.60
2018-05-10T02:45:15.904Z,2.80
2018-05-10T02:47:45.149Z,2.60
2018-05-10T02:50:13.637Z,2.60
2018-05-10T02:52:42.116Z,3.07
2018-05-10T02:55:10.621Z,2.97
2018-05-10T02:57:39.177Z,3.03
2018-05-10T03:00:07.685Z,3.15
2018-05-10T03:02:36.161Z,2.85
2018-05-10T03:05:04.680Z,2.78
2018-05-10T03:07:33.173Z,2.77
2018-05-10T03:10:01.658Z,3.17
2018-05-10T03:12:30.123Z,2.80
2018-05-10T03:14:58.621Z,3.17
2018-05-10T03:17:27.105Z,2.90
2018-05-10T03:19:55.571Z,2.67
2018-05-10T03:22:24.110Z,3.03
2018-05-10T03:24:53.352Z,2.75
2018-05-10T03:27:21.999Z,3.00
2018-05-10T03:29:51.251Z,2.97
2018-05-10T03:32:19.746Z,2.83
2018-05-10T03:34:48.215Z,2.60
2018-05-10T03:37:16.764Z,2.80
2018-05-10T03:39:46.009Z,3.35
2018-05-10T03:42:14.502Z,3.28
2018-05-10T03:44:42.961Z,3.33
2018-05-10T03:47:11.503Z,2.95
2018-05-10T03:49:40.002Z,3.03
2018-05-10T03:52:09.248Z,2.72
2018-05-10T03:54:37.693Z,3.20
2018-05-10T03:57:07.023Z,3.20
2018-05-10T03:59:35.469Z,2.72
2018-05-10T04:02:04.205Z,3.20
2018-05-10T04:04:50.505Z,3.33
2018-05-10T04:07:36.711Z,3.40
2018-05-10T04:13:20.577Z,3.53
2018-05-10T04:15:49.072Z,3.40
2018-05-10T04:18:18.453Z,3.50
2018-05-10T04:20:46.917Z,3.05
2018-05-10T04:23:15.414Z,3.50
2018-05-10T04:25:43.853Z,3.67
2018-05-10T04:28:13.284Z,3.25
2018-05-10T04:30:41.797Z,3.60
2018-05-10T04:33:10.300Z,3.30
2018-05-10T04:35:38.817Z,3.30
2018-05-10T04:38:07.266Z,3.83
2018-05-10T04:40:35.712Z,3.70
2018-05-10T04:43:04.339Z,3.53
2018-05-10T04:45:32.888Z,3.00
2018-05-10T04:48:01.378Z,3.60
2018-05-10T04:50:29.820Z,3.22
2018-05-10T04:52:59.221Z,3.50
2018-05-10T04:55:27.670Z,3.65
2018-05-10T04:57:56.169Z,3.50
2018-05-10T05:00:24.764Z,3.67
2018-05-10T05:02:53.263Z,4.10
2018-05-10T05:05:21.720Z,5.25
2018-05-10T05:07:50.263Z,5.37
2018-05-10T05:10:18.716Z,5.93
2018-05-10T05:12:47.200Z,6.30
2018-05-10T05:15:15.655Z,5.05
2018-05-10T05:17:44.142Z,4.82
2018-05-10T05:20:12.599Z,5.20
2018-05-10T05:22:41.079Z,5.43
2018-05-10T05:25:09.533Z,5.10
2018-05-10T05:27:38.095Z,5.35
2018-05-10T05:30:06.604Z,6.80
2018-05-10T05:32:36.129Z,6.75
2018-05-10T05:35:05.347Z,6.83
2018-05-10T05:37:33.924Z,7.40
2018-05-10T05:40:03.150Z,7.72
2018-05-10T05:42:31.659Z,7.83
2018-05-10T05:45:00.131Z,7.97
2018-05-10T05:47:28.636Z,9.13
2018-05-10T05:49:57.136Z,9.52
2018-05-10T05:52:25.614Z,10.80
2018-05-10T05:54:54.197Z,10.90
2018-05-10T05:57:22.733Z,12.37
2018-05-10T05:59:51.983Z,12.50
2018-05-10T06:02:20.447Z,13.02
2018-05-10T06:04:48.952Z,12.43
2018-05-10T06:07:17.413Z,11.57
2018-05-10T06:09:45.912Z,12.30
2018-05-10T06:12:14.450Z,11.80
2018-05-10T06:14:43.753Z,11.45
2018-05-10T06:17:12.245Z,11.25
2018-05-10T06:19:41.498Z,11.95
2018-05-10T06:22:09.956Z,12.60
2018-05-10T06:24:38.457Z,12.05
2018-05-10T06:27:06.944Z,12.75
2018-05-10T06:29:35.417Z,14.05
2018-05-10T06:32:03.885Z,13.50
2018-05-10T06:34:32.368Z,14.87
2018-05-10T06:37:01.589Z,14.65
2018-05-10T06:39:30.065Z,12.90
2018-05-10T06:41:58.507Z,12.83
2018-05-10T06:44:26.996Z,14.93
2018-05-10T06:46:55.496Z,17.45
2018-05-10T06:49:23.993Z,17.83
2018-05-10T06:51:53.412Z,19.73
2018-05-10T06:54:22.058Z,23.10
2018-05-10T06:56:50.748Z,21.40
2018-05-10T06:59:19.232Z,21.67
2018-05-10T07:01:48.329Z,20.40
2018-05-10T07:04:16.829Z,17.48
2018-05-10T07:06:45.301Z,15.60
2018-05-10T07:09:13.787Z,19.80
2018-05-10T07:11:42.321Z,26.30
2018-05-10T07:14:10.820Z,24.45
2018-05-10T07:16:39.291Z,16.60
2018-05-10T07:19:07.786Z,17.90
2018-05-10T07:21:36.843Z,14.05
2018-05-10T07:24:05.416Z,12.70
2018-05-10T07:26:33.890Z,11.60
2018-05-10T07:29:02.386Z,10.23
2018-05-10T09:58:43.240Z,2.92
2018-05-10T10:01:11.726Z,2.55
2018-05-10T10:03:40.146Z,2.92
2018-05-10T10:06:08.587Z,2.42
2018-05-10T10:08:37.939Z,2.90
2018-05-10T10:11:06.392Z,2.65
2018-05-10T10:13:35.107Z,2.72
2018-05-10T10:16:04.333Z,2.65
2018-05-10T10:18:33.514Z,2.78
2018-05-10T10:21:01.962Z,3.00
2018-05-10T10:23:30.370Z,3.00
2018-05-10T10:26:01.291Z,2.97
2018-05-10T10:28:30.552Z,2.72
2018-05-10T10:30:58.970Z,2.87
2018-05-10T10:33:27.414Z,2.83
2018-05-10T10:35:56.586Z,2.70
2018-05-10T10:38:25.027Z,2.50
2018-05-10T10:40:53.429Z,2.23
2018-05-10T10:43:21.870Z,2.85
2018-05-10T10:45:51.043Z,2.72
2018-05-10T10:48:19.543Z,2.92
2018-05-10T10:50:47.955Z,2.80
2018-05-10T10:53:16.402Z,2.60
2018-05-10T10:55:45.880Z,2.50
2018-05-10T10:58:14.337Z,2.73
2018-05-10T11:00:42.763Z,2.70
2018-05-10T11:03:11.212Z,2.65
2018-05-10T11:05:39.635Z,3.15
2018-05-10T11:08:08.128Z,3.40
2018-05-10T11:10:36.531Z,2.92
2018-05-10T11:13:04.979Z,3.37
2018-05-10T11:15:33.396Z,3.30
2018-05-10T11:18:01.841Z,3.30
2018-05-10T11:20:31.185Z,3.10
2018-05-10T11:23:00.392Z,3.33
2018-05-10T11:25:29.579Z,3.45
2018-05-10T11:27:58.040Z,3.72
2018-05-10T11:30:26.465Z,3.35
2018-05-10T11:32:55.733Z,2.95
2018-05-10T11:35:24.125Z,3.10
2018-05-10T11:37:52.557Z,3.70
2018-05-10T11:40:20.965Z,3.47
2018-05-10T11:42:49.397Z,3.97
2018-05-10T11:45:17.799Z,4.25
2018-05-10T11:47:46.835Z,4.03
2018-05-10T11:50:15.317Z,3.60
2018-05-10T11:52:43.757Z,3.78
2018-05-10T11:55:12.918Z,3.17
2018-05-10T11:57:41.382Z,3.33
2018-05-10T12:00:09.826Z,3.50
2018-05-10T12:02:39.127Z,2.83
2018-05-10T12:05:07.556Z,2.80
2018-05-10T12:07:35.990Z,1.98
2018-05-10T12:10:05.207Z,2.00
2018-05-10T12:12:34.501Z,2.20
2018-05-10T12:15:04.019Z,1.70
2018-05-10T12:17:33.391Z,1.30
2018-05-10T12:20:01.910Z,1.10
2018-05-10T12:22:31.180Z,1.08
2018-05-10T12:24:59.591Z,0.70
2018-05-10T12:27:28.035Z,0.70
2018-05-10T12:29:56.673Z,0.60
2018-05-10T12:32:25.951Z,0.62
2018-05-10T12:34:54.386Z,0.68
2018-05-10T12:37:22.856Z,0.50
2018-05-10T12:39:51.307Z,0.40
2018-05-10T12:42:19.711Z,0.50
2018-05-10T12:44:48.239Z,0.70
2018-05-10T12:47:16.655Z,0.40
2018-05-10T12:49:45.113Z,0.60
2018-05-10T12:52:13.522Z,0.60
2018-05-10T12:54:41.953Z,0.80
2018-05-10T12:57:10.349Z,0.90
2018-05-10T12:59:38.803Z,0.82
2018-05-10T13:02:08.111Z,1.00
2018-05-10T13:04:37.171Z,0.90
2018-05-10T13:07:05.692Z,0.90
2018-05-10T13:09:34.252Z,0.90
2018-05-10T13:12:02.717Z,1.10
2018-05-10T13:14:31.151Z,1.10
2018-05-10T13:17:00.332Z,1.50
2018-05-10T13:19:28.816Z,1.87
2018-05-10T13:21:57.284Z,2.00
2018-05-10T13:24:25.754Z,2.30
2018-05-10T13:26:54.209Z,2.60
2018-05-10T13:29:23.804Z,3.27
2018-05-10T13:31:53.587Z,3.80
2018-05-10T13:34:23.008Z,4.97
2018-05-10T13:36:51.439Z,5.35
2018-05-10T13:39:19.860Z,6.25
2018-05-10T13:41:48.265Z,7.68
2018-05-10T13:44:17.475Z,6.82
2018-05-10T13:46:46.718Z,6.00
2018-05-10T13:49:15.147Z,5.47
2018-05-10T13:51:43.707Z,5.35
2018-05-10T13:54:12.256Z,4.93
2018-05-10T13:56:40.927Z,5.32
2018-05-10T13:59:10.128Z,5.43
2018-05-10T14:01:38.659Z,5.20
2018-05-10T14:04:07.246Z,4.47
2018-05-10T14:06:36.309Z,4.30
2018-05-10T14:09:04.832Z,3.93
2018-05-10T14:11:33.497Z,3.80
2018-05-10T14:14:01.935Z,4.00
2018-05-10T14:16:30.388Z,4.10
2018-05-10T14:18:59.558Z,4.15
2018-05-10T14:21:28.714Z,4.07
2018-05-10T14:23:57.172Z,4.27
2018-05-10T14:26:25.566Z,4.78
2018-05-10T14:28:54.005Z,4.72
2018-05-10T14:31:24.247Z,4.70
2018-05-10T14:33:53.426Z,4.45
2018-05-10T14:36:21.991Z,4.83
2018-05-10T14:38:50.580Z,4.70
2018-05-10T14:41:19.791Z,4.57
2018-05-10T14:43:49.304Z,4.72
2018-05-10T14:46:18.728Z,4.50
2018-05-10T14:48:49.040Z,4.53
2018-05-10T14:51:18.911Z,4.20
2018-05-10T14:53:47.550Z,4.28
2018-05-10T14:56:17.955Z,4.22
2018-05-10T14:58:46.651Z,3.60
2018-05-10T15:01:16.029Z,3.70
2018-05-10T15:03:45.062Z,4.10
2018-05-10T15:06:14.607Z,3.92
2018-05-10T15:08:43.122Z,3.83
2018-05-10T15:11:11.831Z,3.90
2018-05-10T15:13:40.237Z,4.13
2018-05-10T15:16:08.693Z,4.15
2018-05-10T15:18:37.122Z,4.03
2018-05-10T15:21:06.335Z,3.87
2018-05-10T15:23:35.534Z,4.10
2018-05-10T15:26:04.758Z,3.90
2018-05-10T15:28:33.228Z,3.42
2018-05-10T15:31:01.689Z,3.10
2018-05-10T15:33:30.879Z,2.80
2018-05-10T15:35:59.312Z,2.60
2018-05-10T15:38:27.717Z,2.70
2018-05-10T15:40:56.154Z,2.72
2018-05-10T15:43:25.351Z,3.03
2018-05-10T15:45:54.558Z,4.95
2018-05-10T15:48:23.813Z,3.67
2018-05-10T15:50:52.266Z,3.58
2018-05-10T15:53:20.678Z,3.60
2018-05-10T15:55:49.194Z,3.28
2018-05-10T15:58:17.711Z,3.70
2018-05-10T16:00:50.755Z,4.07
2018-05-10T16:03:19.218Z,4.45
2018-05-10T16:05:47.677Z,4.68
2018-05-10T16:08:16.165Z,4.82
2018-05-10T16:10:44.628Z,4.82
2018-05-10T16:13:13.851Z,4.90
2018-05-10T16:15:42.323Z,5.35
2018-05-10T16:18:11.505Z,5.43
2018-05-10T16:20:39.963Z,5.25
2018-05-10T16:23:08.645Z,5.00
2018-05-10T16:25:37.700Z,5.80
2018-05-10T16:28:06.169Z,5.35
2018-05-10T16:30:35.450Z,5.25
2018-05-10T16:33:03.990Z,5.70
2018-05-10T16:35:32.534Z,4.90
2018-05-10T16:38:00.969Z,5.78
2018-05-10T16:40:32.349Z,5.40
2018-05-10T16:43:00.808Z,5.30
2018-05-10T16:48:04.505Z,5.20
2018-05-10T16:50:32.956Z,5.25
2018-05-10T16:53:01.405Z,5.40
2018-05-10T16:55:29.849Z,4.95
2018-05-10T16:57:58.431Z,5.20
2018-05-10T17:00:26.879Z,5.20
2018-05-10T17:02:57.617Z,5.30
2018-05-10T17:08:37.212Z,5.25
2018-05-10T17:11:05.654Z,5.18
2018-05-10T17:13:34.055Z,5.50
2018-05-10T17:16:03.348Z,5.12
2018-05-10T17:18:31.843Z,5.60
2018-05-10T17:21:01.011Z,5.25
2018-05-10T17:23:29.429Z,6.25
2018-05-10T17:25:57.937Z,6.43
2018-05-10T17:28:26.396Z,5.15
2018-05-10T17:30:54.972Z,7.10
2018-05-10T17:33:23.393Z,14.00
2018-05-10T17:35:51.796Z,5.18
2018-05-10T17:38:21.001Z,4.80
2018-05-10T17:40:50.184Z,4.30
2018-05-10T17:43:29.552Z,3.87
2018-05-10T17:45:57.986Z,3.70
2018-05-10T17:48:26.426Z,4.20
2018-05-10T17:50:54.845Z,4.12
2018-05-10T17:53:23.295Z,3.90
2018-05-10T17:55:51.726Z,4.03
2018-05-10T17:58:20.179Z,4.05
2018-05-10T18:00:48.614Z,4.20
2018-05-10T18:03:17.820Z,4.20
2018-05-10T18:05:47.102Z,3.83
2018-05-10T18:08:15.616Z,3.67
2018-05-10T18:10:44.832Z,3.35
2018-05-10T18:13:13.272Z,3.60
2018-05-10T18:15:42.571Z,3.47
2018-05-10T18:18:11.221Z,3.70
2018-05-10T18:20:39.663Z,3.55
2018-05-10T18:23:08.114Z,3.60
2018-05-10T18:25:36.530Z,3.28
2018-05-10T18:28:05.035Z,3.77
2018-05-10T18:30:34.236Z,3.97
2018-05-10T18:33:03.452Z,4.43
2018-05-10T18:35:32.642Z,4.15
2018-05-10T18:38:01.877Z,4.90
2018-05-10T18:40:30.306Z,5.75
2018-05-10T18:42:58.758Z,5.32
2018-05-10T18:45:27.210Z,5.30
2018-05-10T18:47:55.661Z,4.45
2018-05-10T18:50:24.194Z,4.40
2018-05-10T18:52:52.727Z,4.32
2018-05-10T18:55:21.203Z,4.00
2018-05-10T18:57:49.738Z,4.43
2018-05-10T19:00:18.927Z,4.15
2018-05-10T19:02:48.217Z,4.17
2018-05-10T19:05:16.662Z,4.43
2018-05-10T19:07:45.115Z,4.47
2018-05-10T19:10:13.540Z,4.30
2018-05-10T19:12:41.990Z,4.20
2018-05-10T19:15:10.422Z,4.07
2018-05-10T19:17:38.850Z,4.25
2018-05-10T19:20:08.021Z,3.78
2018-05-10T19:22:36.579Z,4.00
2018-05-10T19:25:04.980Z,3.42
2018-05-10T19:27:33.449Z,3.90
2018-05-10T19:30:01.860Z,4.10
2018-05-10T19:32:30.420Z,3.95
2018-05-10T19:34:58.852Z,4.18
2018-05-10T19:37:28.496Z,5.87
2018-05-10T19:39:56.999Z,4.62
2018-05-10T19:42:25.562Z,4.70
2018-05-10T19:44:53.974Z,4.40
2018-05-10T19:47:22.531Z,4.05
2018-05-10T19:49:50.944Z,3.97
2018-05-10T19:52:19.383Z,4.03
2018-05-10T19:54:48.598Z,4.05
2018-05-10T19:57:17.013Z,4.00
2018-05-10T19:59:45.438Z,4.50
2018-05-10T20:02:14.636Z,3.40
2018-05-10T20:04:43.115Z,3.40
2018-05-10T20:07:11.558Z,3.40
2018-05-10T20:09:40.038Z,3.40
2018-05-10T20:12:08.438Z,3.30
2018-05-10T20:14:36.872Z,3.30
2018-05-10T20:17:05.405Z,3.00
2018-05-10T20:19:33.872Z,3.80
2018-05-10T20:22:02.305Z,4.35
2018-05-10T20:24:30.740Z,6.10
2018-05-10T20:26:59.221Z,4.55
2018-05-10T20:29:27.661Z,4.07
2018-05-10T20:31:56.065Z,4.20
2018-05-10T20:34:25.275Z,3.80
2018-05-10T20:36:53.705Z,4.12
2018-05-10T20:39:22.142Z,4.03
2018-05-10T20:41:50.565Z,4.23
2018-05-10T20:44:19.016Z,4.40
2018-05-10T20:46:47.467Z,4.50
2018-05-10T20:49:15.910Z,4.10
2018-05-10T20:51:44.860Z,4.60
2018-05-10T20:54:13.321Z,4.18
2018-05-10T20:56:41.799Z,4.20
2018-05-10T20:59:10.384Z,4.32
2018-05-10T21:01:38.821Z,4.12
2018-05-10T21:04:07.516Z,5.45
2018-05-10T21:06:35.950Z,4.82
2018-05-10T21:09:04.424Z,4.28
2018-05-10T21:11:32.838Z,3.90
2018-05-10T21:14:01.320Z,4.53
2018-05-10T21:16:31.274Z,3.75
2018-05-10T21:18:59.700Z,3.80
2018-05-10T21:21:28.840Z,3.70
2018-05-10T21:23:58.099Z,4.00
2018-05-10T21:26:26.537Z,4.32
2018-05-10T21:28:55.897Z,4.00
2018-05-10T21:31:24.357Z,5.40
2018-05-10T21:33:52.783Z,8.05
2018-05-10T21:36:21.234Z,11.25
2018-05-10T21:38:51.428Z,9.48
2018-05-10T21:41:20.625Z,9.57
2018-05-10T21:43:49.847Z,9.95
2018-05-10T21:46:18.285Z,9.82
2018-05-10T21:48:46.743Z,9.73
2018-05-10T21:51:15.176Z,11.60
2018-05-10T21:53:44.403Z,8.90
2018-05-10T21:56:12.846Z,8.18
2018-05-10T21:58:42.075Z,8.60
2018-05-10T22:01:10.504Z,7.10
2018-05-10T22:03:38.960Z,7.57
2018-05-10T22:06:07.456Z,5.07
2018-05-10T22:08:35.879Z,4.07
2018-05-10T22:11:04.310Z,3.90
2018-05-10T22:13:32.742Z,4.20
2018-05-10T22:16:01.190Z,4.12
2018-05-10T22:18:29.607Z,4.25
2018-05-10T22:20:58.061Z,3.60
2018-05-10T22:23:26.486Z,4.20
2018-05-10T22:25:54.928Z,4.20
2018-05-10T22:28:23.343Z,4.37
2018-05-10T22:30:51.790Z,3.97
2018-05-10T22:33:20.976Z,3.70
2018-05-10T22:35:49.426Z,3.50
2018-05-10T22:38:17.836Z,3.72
2018-05-10T22:40:47.078Z,3.70
2018-05-10T22:43:15.544Z,3.60
2018-05-10T22:45:43.997Z,3.90
2018-05-10T22:48:12.413Z,3.95
2018-05-10T22:50:40.855Z,3.30
2018-05-10T22:53:09.271Z,4.10
2018-05-10T22:55:37.705Z,3.90
2018-05-10T22:58:06.107Z,3.77
2018-05-10T23:00:34.568Z,3.40
2018-05-10T23:03:02.992Z,3.70
2018-05-10T23:05:32.218Z,3.80
2018-05-10T23:08:00.714Z,3.80
2018-05-10T23:10:29.928Z,3.78
2018-05-10T23:12:58.377Z,3.70
2018-05-10T23:15:27.601Z,3.80
2018-05-10T23:17:56.026Z,3.55
2018-05-10T23:20:24.493Z,3.70
2018-05-10T23:22:52.898Z,3.62
2018-05-10T23:25:21.362Z,3.53
2018-05-10T23:27:49.773Z,3.62
2018-05-10T23:30:18.219Z,3.33
2018-05-10T23:32:46.624Z,3.00
2018-05-10T23:35:15.069Z,3.15
2018-05-10T23:37:43.495Z,3.50
2018-05-10T23:40:11.948Z,3.00
2018-05-10T23:42:41.141Z,3.45
2018-05-10T23:45:09.579Z,3.43
2018-05-10T23:47:37.993Z,3.37
2018-05-10T23:50:07.212Z,3.33
2018-05-10T23:52:35.720Z,3.53
2018-05-10T23:55:04.152Z,3.70
2018-05-10T23:57:33.554Z,3.40
